sensor_id;sensor_type;location;lat;lon;timestamp;pressure;altitude;pressure_sealevel;temperature;humidity
57248;BME280;55809;46.618;10.764;2023-04-01T00:01:31;91831.06;;;6.27;62.19
57248;BME280;55809;46.618;10.764;2023-04-01T00:03:59;91823.03;;;6.23;62.23
57248;BME280;55809;46.618;10.764;2023-04-01T00:06:28;91795.19;;;6.14;61.79
57248;BME280;55809;46.618;10.764;2023-04-01T00:08:57;91784.22;;;6.01;61.86
57248;BME280;55809;46.618;10.764;2023-04-01T00:11:26;91817.22;;;6.32;61.67
57248;BME280;55809;46.618;10.764;2023-04-01T00:14:00;91816.47;;;6.28;61.49
57248;BME280;55809;46.618;10.764;2023-04-01T00:16:27;91811.13;;;6.28;61.88
57248;BME280;55809;46.618;10.764;2023-04-01T00:18:56;91814.66;;;6.18;62.44
57248;BME280;55809;46.618;10.764;2023-04-01T00:21:27;91826.84;;;6.26;62.20
57248;BME280;55809;46.618;10.764;2023-04-01T00:23:55;91823.44;;;6.22;62.46
57248;BME280;55809;46.618;10.764;2023-04-01T00:26:27;91818.84;;;6.22;61.83
57248;BME280;55809;46.618;10.764;2023-04-01T00:28:58;91763.66;;;5.87;62.52
57248;BME280;55809;46.618;10.764;2023-04-01T00:31:27;91815.81;;;6.20;62.50
57248;BME280;55809;46.618;10.764;2023-04-01T00:33:56;91794.88;;;6.08;61.57
57248;BME280;55809;46.618;10.764;2023-04-01T00:36:25;91804.03;;;6.10;62.42
57248;BME280;55809;46.618;10.764;2023-04-01T00:38:57;91767.06;;;5.91;61.86
57248;BME280;55809;46.618;10.764;2023-04-01T00:41:27;91799.09;;;6.05;61.63
57248;BME280;55809;46.618;10.764;2023-04-01T00:44:17;91788.38;;;6.05;62.05
57248;BME280;55809;46.618;10.764;2023-04-01T00:46:45;91779.66;;;5.98;61.33
57248;BME280;55809;46.618;10.764;2023-04-01T00:49:17;91786.44;;;6.09;61.55
57248;BME280;55809;46.618;10.764;2023-04-01T00:51:46;91774.66;;;6.00;60.72
57248;BME280;55809;46.618;10.764;2023-04-01T00:54:17;91736.22;;;5.76;61.50
57248;BME280;55809;46.618;10.764;2023-04-01T00:56:52;91761.03;;;5.83;61.82
57248;BME280;55809;46.618;10.764;2023-04-01T00:59:33;91788.38;;;6.05;61.50
57248;BME280;55809;46.618;10.764;2023-04-01T01:02:02;91793.34;;;6.07;61.46
57248;BME280;55809;46.618;10.764;2023-04-01T01:04:32;91788.72;;;6.11;60.58
57248;BME280;55809;46.618;10.764;2023-04-01T01:07:08;91735.41;;;5.82;61.67
57248;BME280;55809;46.618;10.764;2023-04-01T01:09:46;91760.88;;;6.01;61.21
57248;BME280;55809;46.618;10.764;2023-04-01T01:12:22;91780.34;;;6.09;61.12
57248;BME280;55809;46.618;10.764;2023-04-01T01:15:08;91760.50;;;6.03;60.82
57248;BME280;55809;46.618;10.764;2023-04-01T01:17:47;91781.81;;;6.14;60.76
57248;BME280;55809;46.618;10.764;2023-04-01T01:20:37;91785.19;;;6.18;60.62
57248;BME280;55809;46.618;10.764;2023-04-01T01:26:44;91783.34;;;6.11;60.89
57248;BME280;55809;46.618;10.764;2023-04-01T01:29:43;91765.09;;;6.02;60.36
57248;BME280;55809;46.618;10.764;2023-04-01T01:32:20;91775.72;;;6.09;61.13
57248;BME280;55809;46.618;10.764;2023-04-01T01:35:05;91752.78;;;6.05;60.79
57248;BME280;55809;46.618;10.764;2023-04-01T01:37:38;91764.72;;;6.00;61.13
57248;BME280;55809;46.618;10.764;2023-04-01T01:40:11;91707.31;;;5.60;60.45
57248;BME280;55809;46.618;10.764;2023-04-01T02:06:22;91737.13;;;5.58;60.95
57248;BME280;55809;46.618;10.764;2023-04-01T02:08:52;91790.38;;;5.98;59.99
57248;BME280;55809;46.618;10.764;2023-04-01T02:11:28;91791.03;;;6.09;60.36
57248;BME280;55809;46.618;10.764;2023-04-01T02:14:02;91784.91;;;6.08;59.73
57248;BME280;55809;46.618;10.764;2023-04-01T02:16:39;91723.97;;;5.78;59.50
57248;BME280;55809;46.618;10.764;2023-04-01T02:19:13;91789.81;;;6.17;60.03
57248;BME280;55809;46.618;10.764;2023-04-01T02:21:45;91794.31;;;6.24;59.36
57248;BME280;55809;46.618;10.764;2023-04-01T02:24:15;91809.56;;;6.30;59.43
57248;BME280;55809;46.618;10.764;2023-04-01T02:26:45;91779.91;;;6.10;59.52
57248;BME280;55809;46.618;10.764;2023-04-01T02:29:14;91809.50;;;6.38;58.81
57248;BME280;55809;46.618;10.764;2023-04-01T02:31:43;91808.09;;;6.26;58.98
57248;BME280;55809;46.618;10.764;2023-04-01T02:34:14;91783.28;;;6.18;58.34
57248;BME280;55809;46.618;10.764;2023-04-01T02:36:44;91783.75;;;6.09;59.29
57248;BME280;55809;46.618;10.764;2023-04-01T02:39:13;91752.91;;;5.94;61.79
57248;BME280;55809;46.618;10.764;2023-04-01T02:41:44;91840.91;;;6.37;65.39
57248;BME280;55809;46.618;10.764;2023-04-01T02:44:15;91831.47;;;6.25;66.16
57248;BME280;55809;46.618;10.764;2023-04-01T02:46:43;91787.75;;;5.87;69.47
57248;BME280;55809;46.618;10.764;2023-04-01T02:49:12;91838.47;;;6.12;71.01
57248;BME280;55809;46.618;10.764;2023-04-01T02:51:40;91830.16;;;5.99;71.41
57248;BME280;55809;46.618;10.764;2023-04-01T02:54:13;91846.22;;;5.99;72.85
57248;BME280;55809;46.618;10.764;2023-04-01T02:56:42;91838.13;;;6.06;71.68
57248;BME280;55809;46.618;10.764;2023-04-01T02:59:10;91835.53;;;5.99;72.42
57248;BME280;55809;46.618;10.764;2023-04-01T03:01:39;91842.34;;;6.04;72.57
57248;BME280;55809;46.618;10.764;2023-04-01T03:04:07;91831.75;;;5.90;72.09
57248;BME280;55809;46.618;10.764;2023-04-01T03:06:35;91805.91;;;5.65;72.61
57248;BME280;55809;46.618;10.764;2023-04-01T03:09:05;91842.06;;;5.91;73.07
57248;BME280;55809;46.618;10.764;2023-04-01T03:11:35;91839.09;;;5.78;74.23
57248;BME280;55809;46.618;10.764;2023-04-01T03:14:03;91842.16;;;5.77;73.41
57248;BME280;55809;46.618;10.764;2023-04-01T03:16:31;91805.34;;;5.43;73.70
57248;BME280;55809;46.618;10.764;2023-04-01T03:19:00;91842.97;;;5.70;73.97
57248;BME280;55809;46.618;10.764;2023-04-01T03:21:28;91852.56;;;5.68;73.73
57248;BME280;55809;46.618;10.764;2023-04-01T03:23:55;91799.00;;;5.15;73.43
57248;BME280;55809;46.618;10.764;2023-04-01T03:26:26;91858.41;;;5.52;73.49
57248;BME280;55809;46.618;10.764;2023-04-01T03:28:57;91840.19;;;5.29;74.19
57248;BME280;55809;46.618;10.764;2023-04-01T03:31:24;91820.78;;;5.14;74.85
57248;BME280;55809;46.618;10.764;2023-04-01T03:33:52;91855.41;;;5.39;74.38
57248;BME280;55809;46.618;10.764;2023-04-01T03:36:20;91813.56;;;5.11;74.16
57248;BME280;55809;46.618;10.764;2023-04-01T03:38:49;91850.84;;;5.36;74.42
57248;BME280;55809;46.618;10.764;2023-04-01T03:41:17;91819.66;;;5.11;74.93
57248;BME280;55809;46.618;10.764;2023-04-01T03:43:45;91857.41;;;5.28;75.90
57248;BME280;55809;46.618;10.764;2023-04-01T03:46:22;91871.94;;;5.27;75.70
57248;BME280;55809;46.618;10.764;2023-04-01T03:48:53;91803.72;;;4.90;74.97
57248;BME280;55809;46.618;10.764;2023-04-01T03:51:23;91815.50;;;5.00;74.71
57248;BME280;55809;46.618;10.764;2023-04-01T03:53:52;91850.91;;;5.25;74.23
57248;BME280;55809;46.618;10.764;2023-04-01T03:56:20;91844.44;;;5.19;73.72
57248;BME280;55809;46.618;10.764;2023-04-01T03:58:49;91802.19;;;4.92;73.09
57248;BME280;55809;46.618;10.764;2023-04-01T04:01:21;91811.03;;;4.79;73.34
57248;BME280;55809;46.618;10.764;2023-04-01T04:03:50;91860.56;;;5.05;74.25
57248;BME280;55809;46.618;10.764;2023-04-01T04:06:19;91821.75;;;4.72;74.44
57248;BME280;55809;46.618;10.764;2023-04-01T04:08:52;91834.72;;;4.77;73.52
57248;BME280;55809;46.618;10.764;2023-04-01T04:11:22;91861.78;;;4.89;73.85
57248;BME280;55809;46.618;10.764;2023-04-01T04:13:50;91864.44;;;5.00;73.36
57248;BME280;55809;46.618;10.764;2023-04-01T04:16:27;91827.84;;;4.76;73.56
57248;BME280;55809;46.618;10.764;2023-04-01T04:18:55;91866.69;;;5.05;73.52
57248;BME280;55809;46.618;10.764;2023-04-01T04:21:23;91836.28;;;4.74;73.87
57248;BME280;55809;46.618;10.764;2023-04-01T04:23:51;91878.53;;;5.04;74.05
57248;BME280;55809;46.618;10.764;2023-04-01T04:26:19;91878.53;;;5.04;74.09
57248;BME280;55809;46.618;10.764;2023-04-01T04:28:47;91873.25;;;4.86;74.79
57248;BME280;55809;46.618;10.764;2023-04-01T04:31:19;91889.28;;;4.90;75.44
57248;BME280;55809;46.618;10.764;2023-04-01T04:33:48;91898.84;;;4.91;75.45
57248;BME280;55809;46.618;10.764;2023-04-01T04:36:18;91899.19;;;4.93;75.36
57248;BME280;55809;46.618;10.764;2023-04-01T04:38:49;91865.31;;;4.61;76.37
57248;BME280;55809;46.618;10.764;2023-04-01T04:41:18;91892.38;;;4.81;77.03
57248;BME280;55809;46.618;10.764;2023-04-01T04:43:53;91886.31;;;4.59;77.33
57248;BME280;55809;46.618;10.764;2023-04-01T04:46:25;91900.41;;;4.74;76.63
57248;BME280;55809;46.618;10.764;2023-04-01T04:48:56;91903.09;;;4.78;76.95
57248;BME280;55809;46.618;10.764;2023-04-01T04:51:25;91870.28;;;4.63;76.37
57248;BME280;55809;46.618;10.764;2023-04-01T04:53:56;91906.88;;;4.80;76.51
57248;BME280;55809;46.618;10.764;2023-04-01T04:56:24;91913.41;;;4.72;77.20
57248;BME280;55809;46.618;10.764;2023-04-01T04:58:54;91857.34;;;4.43;76.89
57248;BME280;55809;46.618;10.764;2023-04-01T05:01:21;91892.41;;;4.70;77.73
57248;BME280;55809;46.618;10.764;2023-04-01T05:03:49;91923.69;;;4.84;78.17
57248;BME280;55809;46.618;10.764;2023-04-01T05:06:20;91874.47;;;4.60;77.55
57248;BME280;55809;46.618;10.764;2023-04-01T05:08:47;91891.63;;;4.74;77.62
57248;BME280;55809;46.618;10.764;2023-04-01T05:11:17;91908.75;;;4.87;77.60
57248;BME280;55809;46.618;10.764;2023-04-01T05:13:45;91924.38;;;5.03;77.01
57248;BME280;55809;46.618;10.764;2023-04-01T05:16:15;91928.97;;;5.02;78.32
57248;BME280;55809;46.618;10.764;2023-04-01T05:18:44;91862.69;;;4.54;77.86
57248;BME280;55809;46.618;10.764;2023-04-01T05:21:14;91926.69;;;4.90;77.73
57248;BME280;55809;46.618;10.764;2023-04-01T05:23:43;91926.69;;;4.93;78.06
57248;BME280;55809;46.618;10.764;2023-04-01T05:26:12;91878.28;;;4.66;78.71
57248;BME280;55809;46.618;10.764;2023-04-01T05:28:40;91926.69;;;4.97;78.93
57248;BME280;55809;46.618;10.764;2023-04-01T05:31:11;91874.47;;;4.67;79.03
57248;BME280;55809;46.618;10.764;2023-04-01T05:33:39;91870.63;;;4.76;79.06
57248;BME280;55809;46.618;10.764;2023-04-01T05:36:08;91922.81;;;5.09;78.78
57248;BME280;55809;46.618;10.764;2023-04-01T05:38:36;91928.53;;;5.14;78.44
57248;BME280;55809;46.618;10.764;2023-04-01T05:41:07;91934.66;;;5.15;78.53
57248;BME280;55809;46.618;10.764;2023-04-01T05:43:36;91926.22;;;5.16;78.14
57248;BME280;55809;46.618;10.764;2023-04-01T05:46:03;91845.06;;;4.64;78.09
57248;BME280;55809;46.618;10.764;2023-04-01T05:48:32;91900.31;;;5.03;77.64
57248;BME280;55809;46.618;10.764;2023-04-01T05:51:01;91944.91;;;5.31;77.95
57248;BME280;55809;46.618;10.764;2023-04-01T05:53:30;91908.72;;;5.05;78.69
57248;BME280;55809;46.618;10.764;2023-04-01T05:56:02;91893.50;;;4.87;79.29
57248;BME280;55809;46.618;10.764;2023-04-01T05:58:33;91895.75;;;4.92;78.87
57248;BME280;55809;46.618;10.764;2023-04-01T06:01:02;91906.03;;;5.05;78.50
57248;BME280;55809;46.618;10.764;2023-04-01T06:03:30;91903.00;;;4.96;78.73
57248;BME280;55809;46.618;10.764;2023-04-01T06:06:01;91954.44;;;5.35;79.51
57248;BME280;55809;46.618;10.764;2023-04-01T06:08:31;91955.19;;;5.43;79.02
57248;BME280;55809;46.618;10.764;2023-04-01T06:11:18;91952.44;;;5.57;77.60
57248;BME280;55809;46.618;10.764;2023-04-01T06:14:06;91886.81;;;5.28;76.48
57248;BME280;55809;46.618;10.764;2023-04-01T06:16:46;91955.09;;;5.61;75.82
57248;BME280;55809;46.618;10.764;2023-04-01T06:19:26;91966.91;;;5.67;76.67
57248;BME280;55809;46.618;10.764;2023-04-01T06:25:24;91922.66;;;5.45;78.74
57248;BME280;55809;46.618;10.764;2023-04-01T06:28:05;91923.41;;;5.49;78.28
57248;BME280;55809;46.618;10.764;2023-04-01T06:30:40;91918.06;;;5.49;78.17
57248;BME280;55809;46.618;10.764;2023-04-01T06:33:34;91922.59;;;5.55;78.86
57248;BME280;55809;46.618;10.764;2023-04-01T06:39:22;91925.63;;;5.61;79.44
57248;BME280;55809;46.618;10.764;2023-04-01T06:42:18;91945.84;;;5.76;79.58
57248;BME280;55809;46.618;10.764;2023-04-01T06:44:54;91891.22;;;5.63;78.07
57248;BME280;55809;46.618;10.764;2023-04-01T06:47:30;91901.50;;;6.69;74.95
57248;BME280;55809;46.618;10.764;2023-04-01T06:50:07;91902.69;;;7.33;73.08
57248;BME280;55809;46.618;10.764;2023-04-01T06:52:47;91944.66;;;8.08;69.52
57248;BME280;55809;46.618;10.764;2023-04-01T06:55:23;91897.78;;;8.36;67.49
57248;BME280;55809;46.618;10.764;2023-04-01T06:57:54;91929.19;;;9.29;64.95
57248;BME280;55809;46.618;10.764;2023-04-01T07:00:27;91920.09;;;9.79;63.11
57248;BME280;55809;46.618;10.764;2023-04-01T07:03:02;91880.03;;;9.45;63.15
57248;BME280;55809;46.618;10.764;2023-04-01T07:05:33;91874.84;;;9.14;63.73
57248;BME280;55809;46.618;10.764;2023-04-01T07:08:03;91910.72;;;8.88;65.08
57248;BME280;55809;46.618;10.764;2023-04-01T07:10:35;91925.19;;;8.74;66.57
57248;BME280;55809;46.618;10.764;2023-04-01T07:13:13;91883.03;;;8.20;67.83
57248;BME280;55809;46.618;10.764;2023-04-01T07:15:54;91885.34;;;8.18;68.08
57248;BME280;55809;46.618;10.764;2023-04-01T07:18:30;91875.50;;;8.59;67.64
57248;BME280;55809;46.618;10.764;2023-04-01T07:20:59;91874.81;;;8.75;67.16
57248;BME280;55809;46.618;10.764;2023-04-01T07:23:31;91899.22;;;9.27;67.30
57248;BME280;55809;46.618;10.764;2023-04-01T07:26:00;91877.44;;;9.58;64.65
57248;BME280;55809;46.618;10.764;2023-04-01T07:28:33;91913.78;;;9.86;64.09
57248;BME280;55809;46.618;10.764;2023-04-01T07:31:10;91878.09;;;9.46;64.25
57248;BME280;55809;46.618;10.764;2023-04-01T07:33:51;91877.41;;;9.22;64.69
57248;BME280;55809;46.618;10.764;2023-04-01T07:36:25;91915.41;;;10.00;63.52
57248;BME280;55809;46.618;10.764;2023-04-01T07:39:06;91931.69;;;10.13;63.49
57248;BME280;55809;46.618;10.764;2023-04-01T07:41:44;91903.88;;;10.16;63.04
57248;BME280;55809;46.618;10.764;2023-04-01T07:44:20;91899.19;;;10.52;61.85
57248;BME280;55809;46.618;10.764;2023-04-01T07:47:02;91894.63;;;10.66;62.36
57248;BME280;55809;46.618;10.764;2023-04-01T07:49:40;91938.03;;;11.33;61.00
57248;BME280;55809;46.618;10.764;2023-04-01T07:52:18;91899.03;;;11.05;61.22
57248;BME280;55809;46.618;10.764;2023-04-01T07:54:51;91904.06;;;11.48;59.43
57248;BME280;55809;46.618;10.764;2023-04-01T07:57:23;91904.47;;;10.72;61.02
57248;BME280;55809;46.618;10.764;2023-04-01T08:00:02;91937.41;;;10.35;64.35
57248;BME280;55809;46.618;10.764;2023-04-01T08:02:41;91918.75;;;10.24;64.37
57248;BME280;55809;46.618;10.764;2023-04-01T08:05:19;91931.13;;;11.03;62.76
57248;BME280;55809;46.618;10.764;2023-04-01T08:07:56;91900.47;;;11.10;62.42
57248;BME280;55809;46.618;10.764;2023-04-01T08:10:31;91935.69;;;11.48;63.08
57248;BME280;55809;46.618;10.764;2023-04-01T08:13:06;91942.69;;;12.42;59.15
57248;BME280;55809;46.618;10.764;2023-04-01T08:15:37;91899.75;;;12.79;58.15
57248;BME280;55809;46.618;10.764;2023-04-01T08:18:16;91914.00;;;12.19;57.95
57248;BME280;55809;46.618;10.764;2023-04-01T08:20:50;91903.88;;;12.71;56.31
57248;BME280;55809;46.618;10.764;2023-04-01T08:23:22;91906.69;;;13.14;56.35
57248;BME280;55809;46.618;10.764;2023-04-01T08:25:54;91923.19;;;13.64;54.91
57248;BME280;55809;46.618;10.764;2023-04-01T08:28:29;91923.19;;;13.64;54.91
57248;BME280;55809;46.618;10.764;2023-04-01T08:31:01;91881.00;;;13.94;52.42
57248;BME280;55809;46.618;10.764;2023-04-01T08:33:31;91866.06;;;14.21;51.66
57248;BME280;55809;46.618;10.764;2023-04-01T08:36:03;91870.63;;;13.93;52.33
57248;BME280;55809;46.618;10.764;2023-04-01T08:38:36;91868.34;;;14.22;51.40
57248;BME280;55809;46.618;10.764;2023-04-01T08:41:14;91881.47;;;14.33;50.56
57248;BME280;55809;46.618;10.764;2023-04-01T08:43:55;91911.53;;;15.07;49.90
57248;BME280;55809;46.618;10.764;2023-04-01T08:46:51;91873.78;;;14.90;50.00
57248;BME280;55809;46.618;10.764;2023-04-01T08:49:37;91864.56;;;15.43;49.52
57248;BME280;55809;46.618;10.764;2023-04-01T08:52:25;91860.78;;;15.49;47.21
57248;BME280;55809;46.618;10.764;2023-04-01T09:01:13;91895.66;;;16.82;45.60
57248;BME280;55809;46.618;10.764;2023-04-01T09:04:04;91844.84;;;16.94;45.37
57248;BME280;55809;46.618;10.764;2023-04-01T09:06:40;91839.63;;;17.05;32.83
57248;BME280;55809;46.618;10.764;2023-04-01T09:12:45;91881.69;;;17.52;30.86
57248;BME280;55809;46.618;10.764;2023-04-01T09:15:58;91842.81;;;17.57;31.93
57248;BME280;55809;46.618;10.764;2023-04-01T09:21:47;91882.91;;;17.66;31.34
57248;BME280;55809;46.618;10.764;2023-04-01T09:24:41;91862.97;;;17.59;31.39
57248;BME280;55809;46.618;10.764;2023-04-01T09:27:17;91874.22;;;17.91;29.87
57248;BME280;55809;46.618;10.764;2023-04-01T09:30:07;91867.34;;;17.96;30.97
57248;BME280;55809;46.618;10.764;2023-04-01T09:33:24;91846.16;;;17.91;30.83
57248;BME280;55809;46.618;10.764;2023-04-01T09:36:03;64767.38;;;-145.41;100.00
57248;BME280;55809;46.618;10.764;2023-04-01T09:38:39;64767.38;;;-145.41;100.00
57248;BME280;55809;46.618;10.764;2023-04-01T09:41:14;64767.38;;;-145.41;100.00
57248;BME280;55809;46.618;10.764;2023-04-01T09:43:54;64767.38;;;-145.41;100.00
57248;BME280;55809;46.618;10.764;2023-04-01T09:46:35;64767.38;;;-145.41;100.00
57248;BME280;55809;46.618;10.764;2023-04-01T09:49:26;64767.38;;;-145.41;100.00
57248;BME280;55809;46.618;10.764;2023-04-01T09:52:08;64767.38;;;-145.41;100.00
57248;BME280;55809;46.618;10.764;2023-04-01T09:54:51;64767.38;;;-145.41;100.00
57248;BME280;55809;46.618;10.764;2023-04-01T10:06:58;64767.38;;;-145.41;100.00
57248;BME280;55809;46.618;10.764;2023-04-01T10:12:58;64767.38;;;-145.41;100.00
57248;BME280;55809;46.618;10.764;2023-04-01T10:19:15;64767.38;;;-145.41;100.00
57248;BME280;55809;46.618;10.764;2023-04-01T10:30:54;91830.84;;;17.01;29.55
57248;BME280;55809;46.618;10.764;2023-04-01T10:33:38;91796.31;;;16.83;30.16
57248;BME280;55809;46.618;10.764;2023-04-01T10:36:35;91823.63;;;17.51;28.47
57248;BME280;55809;46.618;10.764;2023-04-01T10:42:16;91799.16;;;17.57;27.85
57248;BME280;55809;46.618;10.764;2023-04-01T10:45:39;91813.97;;;17.95;28.88
57248;BME280;55809;46.618;10.764;2023-04-01T10:48:42;91816.22;;;18.11;27.49
57248;BME280;55809;46.618;10.764;2023-04-01T10:51:51;64767.38;;;-145.41;100.00
57248;BME280;55809;46.618;10.764;2023-04-01T10:54:46;64767.38;;;-145.41;100.00
57248;BME280;55809;46.618;10.764;2023-04-01T10:57:41;64767.38;;;-145.41;100.00
57248;BME280;55809;46.618;10.764;2023-04-01T11:00:51;64767.38;;;-145.41;100.00
57248;BME280;55809;46.618;10.764;2023-04-01T11:03:55;91777.47;;;19.04;25.86
57248;BME280;55809;46.618;10.764;2023-04-01T11:07:03;91785.78;;;19.35;26.65
57248;BME280;55809;46.618;10.764;2023-04-01T11:22:17;64767.38;;;-145.41;100.00
57248;BME280;55809;46.618;10.764;2023-04-01T11:25:19;64767.38;;;-145.41;100.00
57248;BME280;55809;46.618;10.764;2023-04-01T11:28:22;64767.38;;;-145.41;100.00
57248;BME280;55809;46.618;10.764;2023-04-01T11:31:30;64767.38;;;-145.41;100.00
57248;BME280;55809;46.618;10.764;2023-04-01T11:34:14;64767.38;;;-145.41;100.00
57248;BME280;55809;46.618;10.764;2023-04-01T11:36:54;91777.13;;;16.29;29.13
57248;BME280;55809;46.618;10.764;2023-04-01T11:39:33;91711.47;;;16.03;27.82
57248;BME280;55809;46.618;10.764;2023-04-01T11:42:16;91772.13;;;17.00;27.93
57248;BME280;55809;46.618;10.764;2023-04-01T11:44:54;91773.78;;;17.51;27.08
57248;BME280;55809;46.618;10.764;2023-04-01T11:47:52;91763.84;;;18.13;27.46
57248;BME280;55809;46.618;10.764;2023-04-01T11:50:32;91748.66;;;17.76;26.64
57248;BME280;55809;46.618;10.764;2023-04-01T11:53:16;91767.19;;;17.43;27.12
57248;BME280;55809;46.618;10.764;2023-04-01T11:55:59;91738.50;;;17.47;27.38
57248;BME280;55809;46.618;10.764;2023-04-01T11:58:51;91748.09;;;17.87;27.43
57248;BME280;55809;46.618;10.764;2023-04-01T12:01:43;91749.97;;;18.16;27.16
57248;BME280;55809;46.618;10.764;2023-04-01T12:07:10;64767.38;;;-145.41;100.00
57248;BME280;55809;46.618;10.764;2023-04-01T12:09:55;64767.38;;;-145.41;100.00
57248;BME280;55809;46.618;10.764;2023-04-01T12:12:33;64767.38;;;-145.41;100.00
57248;BME280;55809;46.618;10.764;2023-04-01T12:15:20;91749.78;;;17.25;27.64
57248;BME280;55809;46.618;10.764;2023-04-01T12:17:56;91667.44;;;16.68;27.72
57248;BME280;55809;46.618;10.764;2023-04-01T12:20:43;91757.09;;;17.19;27.64
57248;BME280;55809;46.618;10.764;2023-04-01T12:23:28;91758.16;;;17.22;29.10
57248;BME280;55809;46.618;10.764;2023-04-01T12:26:21;91762.88;;;16.82;27.77
57248;BME280;55809;46.618;10.764;2023-04-01T12:29:04;91762.94;;;16.49;27.76
57248;BME280;55809;46.618;10.764;2023-04-01T12:31:42;91767.59;;;16.25;28.24
57248;BME280;55809;46.618;10.764;2023-04-01T12:34:49;91763.44;;;16.14;28.95
57248;BME280;55809;46.618;10.764;2023-04-01T12:37:53;91767.66;;;16.15;29.45
57248;BME280;55809;46.618;10.764;2023-04-01T12:40:44;91764.53;;;16.08;27.99
57248;BME280;55809;46.618;10.764;2023-04-01T12:46:24;91763.53;;;15.96;29.50
57248;BME280;55809;46.618;10.764;2023-04-01T12:49:17;91753.44;;;15.87;29.02
57248;BME280;55809;46.618;10.764;2023-04-01T12:52:05;91765.41;;;15.81;29.35
57248;BME280;55809;46.618;10.764;2023-04-01T13:07:36;91766.31;;;15.08;29.57
57248;BME280;55809;46.618;10.764;2023-04-01T13:10:26;91775.22;;;14.90;30.62
57248;BME280;55809;46.618;10.764;2023-04-01T13:16:11;91779.00;;;14.65;31.12
57248;BME280;55809;46.618;10.764;2023-04-01T13:18:54;91753.59;;;14.31;30.58
57248;BME280;55809;46.618;10.764;2023-04-01T13:21:38;91780.47;;;14.47;31.26
57248;BME280;55809;46.618;10.764;2023-04-01T13:24:25;91775.94;;;14.44;31.77
57248;BME280;55809;46.618;10.764;2023-04-01T13:27:01;91732.63;;;14.22;32.30
57248;BME280;55809;46.618;10.764;2023-04-01T13:29:37;91792.28;;;14.63;33.03
57248;BME280;55809;46.618;10.764;2023-04-01T13:32:19;91777.78;;;14.66;31.11
57248;BME280;55809;46.618;10.764;2023-04-01T13:35:09;91786.34;;;14.46;30.60
57248;BME280;55809;46.618;10.764;2023-04-01T13:38:12;91788.91;;;14.49;30.71
57248;BME280;55809;46.618;10.764;2023-04-01T13:40:52;91776.06;;;14.41;31.00
57248;BME280;55809;46.618;10.764;2023-04-01T13:43:27;91791.03;;;14.45;31.55
57248;BME280;55809;46.618;10.764;2023-04-01T13:46:15;91751.41;;;13.98;32.96
57248;BME280;55809;46.618;10.764;2023-04-01T13:49:03;91799.28;;;14.23;32.05
57248;BME280;55809;46.618;10.764;2023-04-01T13:55:21;91770.28;;;13.61;33.39
57248;BME280;55809;46.618;10.764;2023-04-01T13:58:00;91769.22;;;13.59;32.80
57248;BME280;55809;46.618;10.764;2023-04-01T14:00:45;91768.06;;;13.78;34.59
57248;BME280;55809;46.618;10.764;2023-04-01T14:06:35;91794.22;;;13.94;32.29
57248;BME280;55809;46.618;10.764;2023-04-01T14:09:31;91759.31;;;13.74;34.33
57248;BME280;55809;46.618;10.764;2023-04-01T14:12:11;91760.22;;;13.71;33.18
57248;BME280;55809;46.618;10.764;2023-04-01T14:14:55;91807.38;;;14.05;33.87
57248;BME280;55809;46.618;10.764;2023-04-01T14:17:43;91747.88;;;13.70;33.54
57248;BME280;55809;46.618;10.764;2023-04-01T14:20:29;91777.38;;;13.68;33.99
57248;BME280;55809;46.618;10.764;2023-04-01T14:23:23;91799.19;;;13.96;32.03
57248;BME280;55809;46.618;10.764;2023-04-01T14:29:26;91764.00;;;13.74;34.19
57248;BME280;55809;46.618;10.764;2023-04-01T14:32:07;91767.59;;;13.71;34.03
57248;BME280;55809;46.618;10.764;2023-04-01T14:34:59;91807.13;;;13.81;34.56
57248;BME280;55809;46.618;10.764;2023-04-01T14:37:57;91768.25;;;13.44;34.06
57248;BME280;55809;46.618;10.764;2023-04-01T14:40:28;91772.38;;;13.57;34.93
57248;BME280;55809;46.618;10.764;2023-04-01T14:43:14;91775.41;;;13.59;35.23
57248;BME280;55809;46.618;10.764;2023-04-01T14:45:59;91785.59;;;13.55;36.01
57248;BME280;55809;46.618;10.764;2023-04-01T14:48:34;91764.72;;;13.34;35.30
57248;BME280;55809;46.618;10.764;2023-04-01T14:51:11;91773.94;;;13.36;35.76
57248;BME280;55809;46.618;10.764;2023-04-01T14:53:49;91785.03;;;13.29;36.94
57248;BME280;55809;46.618;10.764;2023-04-01T14:56:37;91822.81;;;13.55;36.86
57248;BME280;55809;46.618;10.764;2023-04-01T14:59:09;91823.59;;;13.33;36.21
57248;BME280;55809;46.618;10.764;2023-04-01T15:01:46;91800.69;;;13.12;36.56
57248;BME280;55809;46.618;10.764;2023-04-01T15:07:23;91793.16;;;13.07;37.14
57248;BME280;55809;46.618;10.764;2023-04-01T15:10:04;91820.88;;;13.11;37.26
57248;BME280;55809;46.618;10.764;2023-04-01T15:12:38;91817.19;;;13.05;37.42
57248;BME280;55809;46.618;10.764;2023-04-01T15:15:19;91794.47;;;12.81;37.67
57248;BME280;55809;46.618;10.764;2023-04-01T15:18:02;91811.34;;;12.85;37.53
57248;BME280;55809;46.618;10.764;2023-04-01T15:23:24;91849.34;;;12.94;36.94
57248;BME280;55809;46.618;10.764;2023-04-01T15:26:23;91854.63;;;12.98;36.27
57248;BME280;55809;46.618;10.764;2023-04-01T15:29:03;91843.28;;;12.90;36.71
57248;BME280;55809;46.618;10.764;2023-04-01T15:31:38;91824.28;;;12.68;36.46
57248;BME280;55809;46.618;10.764;2023-04-01T15:34:22;91847.91;;;12.89;36.73
57248;BME280;55809;46.618;10.764;2023-04-01T15:36:55;91817.13;;;12.74;36.56
57248;BME280;55809;46.618;10.764;2023-04-01T15:39:30;91798.53;;;12.63;36.81
57248;BME280;55809;46.618;10.764;2023-04-01T15:42:16;91853.53;;;12.95;35.45
57248;BME280;55809;46.618;10.764;2023-04-01T15:45:01;91846.56;;;13.07;36.00
57248;BME280;55809;46.618;10.764;2023-04-01T15:47:35;91841.75;;;12.89;36.27
57248;BME280;55809;46.618;10.764;2023-04-01T15:50:28;91841.22;;;12.94;36.04
57248;BME280;55809;46.618;10.764;2023-04-01T15:53:19;91841.47;;;12.87;36.73